Time;durP1;ratioP1;P1;durP2;ratioP2;P2;SDS_P1;SDS_P2;PMS_P1;PMS_P2;Temp;Humidity;BMP_temperature;BMP_pressure;BME280_temperature;BME280_humidity;BME280_pressure;Samples;Min_cycle;Max_cycle;Signal;HPM_P1;HPM_P2
2024/04/19 00:01:38;;;;;;;6.83;5.50;;;;;;;4.00;100.00;98396.72;5428408;26;20296;-79
2024/04/19 00:04:04;;;;;;;7.27;5.67;;;;;;;4.04;100.00;98384.38;5429563;26;20232;-79
2024/04/19 00:06:32;;;;;;;8.27;6.20;;;;;;;4.10;100.00;98378.91;5429855;26;20294;-81
2024/04/19 00:08:58;;;;;;;8.30;5.77;;;;;;;4.02;100.00;98381.81;5429707;26;20261;-79
2024/04/19 00:11:28;;;;;;;7.93;5.57;;;;;;;3.99;100.00;98375.84;5428423;26;20262;-79
2024/04/19 00:13:54;;;;;;;6.67;5.10;;;;;;;4.01;100.00;98372.25;5429458;26;20280;-79
2024/04/19 00:16:22;;;;;;;6.60;5.23;;;;;;;3.95;100.00;98374.25;5429771;26;20220;-79
2024/04/19 00:18:48;;;;;;;6.77;5.10;;;;;;;3.93;100.00;98370.84;5429811;26;20216;-80
2024/04/19 00:21:16;;;;;;;8.27;5.53;;;;;;;3.94;100.00;98378.66;5429387;26;20229;-80
2024/04/19 00:23:41;;;;;;;6.20;5.17;;;;;;;3.91;100.00;98365.69;5429538;26;20291;-80
2024/04/19 00:26:09;;;;;;;6.60;5.20;;;;;;;3.85;100.00;98367.69;5429583;26;20220;-79
2024/04/19 00:28:38;;;;;;;5.70;4.77;;;;;;;3.82;100.00;98368.66;5429464;26;20415;-80
2024/04/19 00:31:06;;;;;;;7.30;5.27;;;;;;;3.79;100.00;98363.53;5428981;26;20262;-80
2024/04/19 00:33:32;;;;;;;6.37;4.60;;;;;;;3.74;100.00;98362.84;5429214;26;20293;-80
2024/04/19 00:36:00;;;;;;;8.23;4.97;;;;;;;3.68;100.00;98360.47;5426754;26;20228;-79
2024/04/19 00:38:25;;;;;;;7.30;4.73;;;;;;;3.61;100.00;98356.41;5426485;26;20298;-80
2024/04/19 00:40:54;;;;;;;6.37;4.37;;;;;;;3.57;100.00;98347.00;5426330;26;20240;-81
2024/04/19 00:43:20;;;;;;;6.27;4.63;;;;;;;3.56;100.00;98349.66;5426579;26;20222;-80
2024/04/19 00:45:51;;;;;;;6.13;4.40;;;;;;;3.52;100.00;98345.44;5426487;26;20233;-80
2024/04/19 00:48:18;;;;;;;6.23;4.83;;;;;;;3.55;100.00;98346.19;5426531;26;20305;-80
2024/04/19 00:50:47;;;;;;;7.13;5.40;;;;;;;3.61;100.00;98348.56;5427585;26;20224;-80
2024/04/19 00:53:19;;;;;;;8.07;5.13;;;;;;;3.62;100.00;98355.50;5428192;26;20268;-78
2024/04/19 00:55:45;;;;;;;7.07;4.87;;;;;;;3.62;100.00;98347.66;5428546;26;20308;-79
2024/04/19 00:58:13;;;;;;;7.67;4.90;;;;;;;3.65;100.00;98349.31;5428993;26;20285;-79
2024/04/19 01:00:39;;;;;;;7.57;4.77;;;;;;;3.74;100.00;98347.19;5428286;26;20271;-79
2024/04/19 01:03:12;;;;;;;5.70;4.70;;;;;;;3.80;100.00;98346.94;5428929;26;20236;-79
2024/04/19 01:05:38;;;;;;;6.47;4.47;;;;;;;3.88;100.00;98342.28;5429033;26;20221;-80
2024/04/19 01:08:07;;;;;;;7.50;5.30;;;;;;;3.95;100.00;98342.88;5428477;26;20219;-79
2024/04/19 01:10:34;;;;;;;7.63;4.87;;;;;;;3.98;100.00;98348.84;5428329;26;20325;-79
2024/04/19 01:13:03;;;;;;;7.70;5.30;;;;;;;4.02;100.00;98342.59;5428740;26;20293;-79
2024/04/19 01:15:28;;;;;;;8.07;5.17;;;;;;;4.05;100.00;98339.00;5428351;26;20216;-79
2024/04/19 01:17:56;;;;;;;8.67;5.50;;;;;;;4.05;100.00;98339.84;5428441;26;20219;-79
2024/04/19 01:20:25;;;;;;;6.70;5.40;;;;;;;4.12;100.00;98336.06;5427172;26;20254;-79
2024/04/19 01:22:53;;;;;;;6.63;5.13;;;;;;;4.21;100.00;98330.47;5427347;26;20275;-79
2024/04/19 01:25:29;;;;;;;7.50;5.07;;;;;;;4.28;100.00;98331.06;5428053;26;20229;-78
2024/04/19 01:28:00;;;;;;;8.47;5.93;;;;;;;4.35;100.00;98322.88;5428322;26;20232;-79
2024/04/19 01:30:26;;;;;;;7.73;5.13;;;;;;;4.39;100.00;98318.41;5427365;26;20237;-78
2024/04/19 01:32:54;;;;;;;5.90;4.57;;;;;;;4.47;100.00;98319.75;5427662;26;20528;-79
2024/04/19 01:35:19;;;;;;;7.33;5.47;;;;;;;4.49;100.00;98319.69;5428096;26;20242;-81
2024/04/19 01:37:47;;;;;;;7.33;4.80;;;;;;;4.56;100.00;98311.53;5427709;26;20224;-79
2024/04/19 01:40:13;;;;;;;6.50;4.47;;;;;;;4.56;100.00;98321.13;5427640;26;20270;-79
2024/04/19 01:42:41;;;;;;;6.20;5.03;;;;;;;4.51;100.00;98316.09;5427948;26;20241;-79
2024/04/19 01:45:09;;;;;;;5.67;4.50;;;;;;;4.51;100.00;98316.09;5427623;26;20223;-79
2024/04/19 01:47:38;;;;;;;6.50;5.03;;;;;;;4.50;100.00;98319.66;5428001;26;20222;-78
2024/04/19 01:50:05;;;;;;;7.07;5.20;;;;;;;4.43;100.00;98310.34;5426928;26;20362;-79
2024/04/19 01:52:33;;;;;;;7.13;4.90;;;;;;;4.43;100.00;98299.88;5428080;26;20221;-79
2024/04/19 01:54:58;;;;;;;6.67;4.83;;;;;;;4.42;100.00;98298.19;5427528;26;20238;-79
2024/04/19 01:57:26;;;;;;;7.93;5.27;;;;;;;4.40;100.00;98300.00;5426721;26;20311;-79
2024/04/19 01:59:52;;;;;;;7.60;5.07;;;;;;;4.38;100.00;98296.59;5427320;26;20260;-79
2024/04/19 02:02:24;;;;;;;5.93;4.67;;;;;;;4.40;100.00;98293.94;5427614;26;20299;-79
2024/04/19 02:04:50;;;;;;;6.97;5.10;;;;;;;4.34;100.00;98295.03;5428116;26;20213;-79
2024/04/19 02:07:18;;;;;;;7.23;4.73;;;;;;;4.28;100.00;98295.28;5431109;26;20293;-79
2024/04/19 02:09:44;;;;;;;6.30;4.60;;;;;;;4.20;100.00;98286.91;5431281;26;20309;-79
2024/04/19 02:12:12;;;;;;;8.73;5.13;;;;;;;4.19;100.00;98286.97;5431147;26;20220;-79
2024/04/19 02:14:38;;;;;;;6.43;4.57;;;;;;;4.18;100.00;98293.97;5431472;26;20280;-79
2024/04/19 02:17:06;;;;;;;7.60;4.87;;;;;;;4.18;100.00;98283.53;5431167;26;20219;-79
2024/04/19 02:19:36;;;;;;;7.03;4.90;;;;;;;4.23;100.00;98285.94;5428713;26;20280;-80
2024/04/19 02:22:05;;;;;;;7.23;4.77;;;;;;;4.29;100.00;98281.28;5417810;26;20221;-79
2024/04/19 02:24:30;;;;;;;6.13;4.73;;;;;;;4.38;100.00;98272.19;5407424;26;20308;-79
2024/04/19 02:27:00;;;;;;;7.13;5.03;;;;;;;4.49;100.00;98265.59;5407027;26;20225;-79
2024/04/19 02:32:09;;;;;;;6.20;4.43;;;;;;;4.57;100.00;98260.03;5349002;26;20224;-79
2024/04/19 02:34:40;;;;;;;6.17;3.93;;;;;;;4.58;100.00;98252.09;5407398;26;20335;-79
2024/04/19 02:37:09;;;;;;;6.63;3.90;;;;;;;4.69;100.00;98254.25;5406994;26;20297;-79
2024/04/19 02:39:37;;;;;;;5.53;4.10;;;;;;;4.73;100.00;98254.06;5411265;26;20248;-79
2024/04/19 02:42:05;;;;;;;6.73;3.93;;;;;;;4.79;100.00;98240.72;5421104;26;20217;-79
2024/04/19 02:44:33;;;;;;;5.30;3.87;;;;;;;4.90;100.00;98227.97;5422084;26;20310;-79
2024/04/19 02:47:02;;;;;;;6.43;3.83;;;;;;;4.98;100.00;98231.09;5430283;26;20254;-79
2024/04/19 02:49:30;;;;;;;6.03;4.30;;;;;;;5.04;100.00;98217.72;5429959;26;20262;-80
2024/04/19 02:52:01;;;;;;;4.93;3.73;;;;;;;5.12;100.00;98212.16;5418614;26;20233;-80
2024/04/19 02:54:29;;;;;;;7.10;4.17;;;;;;;5.12;100.00;98212.16;5418472;26;20237;-79
2024/04/19 02:56:57;;;;;;;5.93;3.93;;;;;;;5.20;100.00;98208.22;5415388;26;20278;-79
2024/04/19 02:59:25;;;;;;;8.10;4.30;;;;;;;5.20;100.00;98205.59;5406962;26;20244;-79
2024/04/19 03:01:53;;;;;;;4.63;3.50;;;;;;;5.25;100.00;98202.78;5406597;26;20712;-79
2024/04/19 03:04:21;;;;;;;5.70;3.90;;;;;;;5.23;100.00;98202.84;5406930;26;20224;-79
2024/04/19 03:06:49;;;;;;;7.47;4.40;;;;;;;5.23;100.00;98200.22;5406854;26;20223;-79
2024/04/19 03:09:20;;;;;;;6.30;3.73;;;;;;;5.24;100.00;98198.44;5406835;26;20687;-79
2024/04/19 03:11:48;;;;;;;6.33;3.93;;;;;;;5.28;100.00;98187.78;5406787;26;20862;-79
2024/04/19 03:14:16;;;;;;;5.93;3.60;;;;;;;5.32;100.00;98186.69;5407500;26;20358;-79
2024/04/19 03:16:44;;;;;;;5.83;3.47;;;;;;;5.34;100.00;98187.47;5409234;26;20402;-79
2024/04/19 03:19:12;;;;;;;5.87;4.00;;;;;;;5.33;100.00;98172.69;5408824;26;20331;-79
2024/04/19 03:21:41;;;;;;;7.67;4.30;;;;;;;5.35;100.00;98173.44;5407703;26;20276;-79
2024/04/19 03:24:09;;;;;;;5.63;4.20;;;;;;;5.32;100.00;98172.75;5407714;26;20226;-79
2024/04/19 03:26:40;;;;;;;6.93;3.90;;;;;;;5.28;100.00;98169.44;5407351;26;20281;-79
2024/04/19 03:29:08;;;;;;;8.50;4.20;;;;;;;5.32;100.00;98175.38;5407317;26;20277;-79
2024/04/19 03:31:36;;;;;;;5.17;3.83;;;;;;;5.36;100.00;98166.41;5407161;26;20226;-79
2024/04/19 03:34:05;;;;;;;6.30;4.10;;;;;;;5.37;100.00;98158.50;5407350;26;20269;-79
2024/04/19 03:36:34;;;;;;;7.07;4.23;;;;;;;5.40;100.00;98152.25;5406857;26;20277;-79
2024/04/19 03:39:03;;;;;;;6.37;4.43;;;;;;;5.48;100.00;98155.34;5406653;26;20334;-79
2024/04/19 03:41:33;;;;;;;5.97;4.10;;;;;;;5.56;100.00;98151.44;5406648;26;20343;-79
2024/04/19 03:46:48;;;;;;;7.77;4.53;;;;;;;5.55;100.00;98134.00;5409543;26;20271;-79
2024/04/19 03:49:17;;;;;;;7.33;4.37;;;;;;;5.50;100.00;98141.25;5406581;26;20277;-79
2024/04/19 03:51:45;;;;;;;7.17;4.27;;;;;;;5.59;100.00;98135.56;5406477;26;20339;-79
2024/04/19 03:54:13;;;;;;;7.03;4.70;;;;;;;5.54;100.00;98141.94;5406677;26;20366;-79
2024/04/19 03:56:41;;;;;;;6.33;4.43;;;;;;;5.53;100.00;98138.50;5406431;26;20229;-79
2024/04/19 03:59:12;;;;;;;7.53;5.20;;;;;;;5.50;100.00;98133.38;5414517;26;20277;-79
2024/04/19 04:01:40;;;;;;;7.27;4.70;;;;;;;5.56;100.00;98135.69;5407909;26;20350;-79
2024/04/19 04:04:08;;;;;;;7.57;4.17;;;;;;;5.57;100.00;98137.41;5408002;26;20245;-79
2024/04/19 04:06:37;;;;;;;8.40;4.87;;;;;;;5.55;100.00;98125.31;5414141;26;20262;-79
2024/04/19 04:09:05;;;;;;;7.07;4.30;;;;;;;5.54;100.00;98121.84;5406764;26;20807;-79
2024/04/19 04:11:33;;;;;;;6.80;4.47;;;;;;;5.56;100.00;98125.22;5406190;26;20609;-79
2024/04/19 04:14:01;;;;;;;6.80;4.30;;;;;;;5.55;100.00;98134.00;5406732;26;20359;-79
2024/04/19 04:16:32;;;;;;;6.30;4.33;;;;;;;5.55;100.00;98130.56;5407015;26;20241;-79
2024/04/19 04:19:00;;;;;;;6.03;4.00;;;;;;;5.55;100.00;98123.53;5407165;26;20225;-79
2024/04/19 04:21:28;;;;;;;5.17;4.13;;;;;;;5.56;100.00;98119.97;5406508;26;20894;-79
2024/04/19 04:23:56;;;;;;;5.60;4.07;;;;;;;5.57;100.00;98115.59;5406724;26;20335;-79
2024/04/19 04:26:24;;;;;;;7.40;3.87;;;;;;;5.53;100.00;98119.28;5406882;26;20310;-79
2024/04/19 04:28:52;;;;;;;6.43;4.13;;;;;;;5.53;100.00;98109.66;5406586;26;20281;-79
2024/04/19 04:31:21;;;;;;;6.27;3.97;;;;;;;5.53;100.00;98120.16;5406441;26;20636;-79
2024/04/19 04:33:51;;;;;;;5.03;3.60;;;;;;;5.51;100.00;98110.66;5406633;26;20338;-79
2024/04/19 04:36:20;;;;;;;5.57;3.67;;;;;;;5.51;100.00;98101.00;5406707;26;20286;-79
2024/04/19 04:38:48;;;;;;;7.57;3.87;;;;;;;5.53;100.00;98104.41;5406885;26;20478;-79
2024/04/19 04:41:16;;;;;;;6.93;4.10;;;;;;;5.50;100.00;98099.31;5406159;26;20237;-79
2024/04/19 04:43:44;;;;;;;4.73;3.57;;;;;;;5.51;100.00;98101.00;5406457;26;20418;-79
2024/04/19 04:46:12;;;;;;;7.40;3.87;;;;;;;5.53;100.00;98103.56;5415209;26;20289;-80
2024/04/19 04:48:40;;;;;;;8.60;3.77;;;;;;;5.52;100.00;98101.84;5427084;26;20229;-80
2024/04/19 04:51:11;;;;;;;7.07;3.67;;;;;;;5.50;100.00;98109.78;5426227;26;20234;-80
2024/04/19 04:53:39;;;;;;;5.90;3.70;;;;;;;5.50;100.00;98115.03;5426460;26;20218;-80
2024/04/19 04:56:08;;;;;;;5.27;3.63;;;;;;;5.52;100.00;98110.59;5424840;26;20217;-80
2024/04/19 04:58:36;;;;;;;5.37;3.93;;;;;;;5.59;100.00;98098.88;5406916;26;20282;-79
2024/04/19 05:01:05;;;;;;;7.10;3.97;;;;;;;5.62;100.00;98098.69;5407277;26;20363;-79
2024/04/19 05:03:33;;;;;;;6.13;3.53;;;;;;;5.60;100.00;98094.44;5409071;26;20233;-80
2024/04/19 05:06:01;;;;;;;5.63;3.80;;;;;;;5.59;100.00;98098.88;5410797;26;20262;-79
2024/04/19 05:08:32;;;;;;;5.53;3.80;;;;;;;5.63;100.00;98091.69;5409614;26;20312;-80
2024/04/19 05:11:01;;;;;;;6.70;3.93;;;;;;;5.67;100.00;98096.69;5411475;26;20279;-79
2024/04/19 05:13:29;;;;;;;6.27;4.00;;;;;;;5.71;100.00;98087.75;5413090;26;20281;-79
2024/04/19 05:15:58;;;;;;;7.20;4.00;;;;;;;5.68;100.00;98087.91;5411859;26;20237;-79
2024/04/19 05:18:26;;;;;;;6.67;4.07;;;;;;;5.66;100.00;98089.75;5407577;26;20315;-79
2024/04/19 05:20:55;;;;;;;6.33;4.20;;;;;;;5.69;100.00;98100.09;5408116;26;20276;-79
2024/04/19 05:23:23;;;;;;;9.20;4.50;;;;;;;5.72;100.00;98097.31;5406153;26;20272;-79
2024/04/19 05:25:54;;;;;;;6.20;4.30;;;;;;;5.77;100.00;98095.31;5407231;26;20728;-79
2024/04/19 05:28:22;;;;;;;6.40;4.40;;;;;;;5.85;100.00;98085.31;5406821;26;20270;-79
2024/04/19 05:30:50;;;;;;;6.60;3.97;;;;;;;5.87;100.00;98072.97;5406725;26;20320;-79
2024/04/19 05:33:18;;;;;;;6.40;4.23;;;;;;;5.92;100.00;98073.56;5408021;26;20617;-79
2024/04/19 05:35:47;;;;;;;7.27;4.60;;;;;;;5.98;100.00;98077.69;5408631;26;20353;-79
2024/04/19 05:38:15;;;;;;;6.40;4.43;;;;;;;6.01;100.00;98073.13;5408460;26;20229;-79
2024/04/19 05:40:43;;;;;;;7.17;4.73;;;;;;;6.05;100.00;98053.66;5409112;26;20373;-79
2024/04/19 05:43:14;;;;;;;5.53;4.07;;;;;;;6.13;100.00;98059.34;5412382;26;20285;-80
2024/04/19 05:45:43;;;;;;;5.93;4.43;;;;;;;6.20;100.00;98060.72;5412251;26;20270;-81
2024/04/19 05:48:13;;;;;;;4.93;4.00;;;;;;;6.26;100.00;98060.41;5411379;26;20316;-79
2024/04/19 05:50:41;;;;;;;5.90;3.80;;;;;;;6.26;100.00;98055.16;5410002;26;20297;-79
2024/04/19 05:53:09;;;;;;;9.03;4.50;;;;;;;6.34;100.00;98047.69;5410377;26;20290;-79
2024/04/19 05:55:38;;;;;;;6.80;3.80;;;;;;;6.37;100.00;98052.81;5427079;26;20321;-80
2024/04/19 05:58:06;;;;;;;5.13;4.00;;;;;;;6.40;100.00;98051.78;5428164;26;20292;-79
2024/04/19 06:00:37;;;;;;;6.87;3.67;;;;;;;6.43;100.00;98057.72;5428595;26;20230;-79
2024/04/19 06:03:05;;;;;;;4.93;3.87;;;;;;;6.47;98.73;98046.09;5428303;26;20269;-80
2024/04/19 06:05:33;;;;;;;3.73;2.93;;;;;;;6.51;99.67;98050.28;5415209;26;20346;-79
2024/04/19 06:08:02;;;;;;;8.30;3.93;;;;;;;6.54;100.00;98057.97;5409858;26;20346;-79
2024/04/19 06:10:30;;;;;;;6.47;3.53;;;;;;;6.62;99.84;98058.41;5409764;26;20294;-79
2024/04/19 06:12:58;;;;;;;4.47;3.10;;;;;;;6.68;100.00;98063.34;5409536;26;20689;-79
2024/04/19 06:15:26;;;;;;;6.10;3.40;;;;;;;6.63;100.00;98054.00;5409404;26;20544;-79
2024/04/19 06:17:57;;;;;;;5.70;3.03;;;;;;;6.58;100.00;98050.78;5411657;26;20691;-79
2024/04/19 06:20:25;;;;;;;5.60;3.33;;;;;;;6.57;100.00;98057.81;5410559;26;20304;-79
2024/04/19 06:22:53;;;;;;;6.80;3.70;;;;;;;6.63;100.00;98054.00;5409501;26;20266;-79
2024/04/19 06:25:21;;;;;;;5.17;3.10;;;;;;;6.63;100.00;98044.34;5409374;26;20233;-79
2024/04/19 06:27:50;;;;;;;6.40;3.17;;;;;;;6.74;100.00;98047.25;5408715;26;20278;-79
2024/04/19 06:30:15;;;;;;;5.40;2.90;;;;;;;6.72;99.73;98035.97;5410112;26;20356;-79
2024/04/19 06:32:44;;;;;;;5.90;3.30;;;;;;;6.79;100.00;98046.97;5409881;26;20221;-78
2024/04/19 06:35:16;;;;;;;4.50;3.50;;;;;;;6.82;100.00;98026.66;5409516;26;20598;-78
2024/04/19 06:37:44;;;;;;;4.00;2.90;;;;;;;6.96;100.00;98026.69;5409632;26;20228;-79
2024/04/19 06:40:12;;;;;;;3.57;3.27;;;;;;;7.05;100.00;98026.19;5408348;26;20292;-79
2024/04/19 06:42:40;;;;;;;6.50;3.60;;;;;;;7.18;100.00;98026.31;5408658;26;20350;-79
2024/04/19 06:45:09;;;;;;;4.70;3.20;;;;;;;7.29;99.60;98014.28;5408893;26;20414;-78
2024/04/19 06:47:37;;;;;;;5.47;3.13;;;;;;;7.38;100.00;98009.34;5407905;26;20290;-78
2024/04/19 06:50:05;;;;;;;4.20;3.33;;;;;;;7.38;97.79;97991.88;5407434;26;20385;-76
2024/04/19 06:52:36;;;;;;;3.90;2.93;;;;;;;7.38;98.14;97993.56;5404957;26;20675;-78
2024/04/19 06:55:04;;;;;;;3.90;3.10;;;;;;;7.45;99.24;98005.41;5407702;26;20277;-77
2024/04/19 06:57:33;;;;;;;3.83;2.87;;;;;;;7.55;100.00;98000.44;5408490;26;20233;-79
2024/04/19 07:00:01;;;;;;;4.30;3.30;;;;;;;7.64;100.00;97989.38;5408821;26;20339;-79
2024/04/19 07:02:29;;;;;;;4.50;3.50;;;;;;;7.58;95.86;97968.69;5409000;26;20300;-79
2024/04/19 07:04:57;;;;;;;3.80;3.10;;;;;;;7.53;96.02;97970.78;5408527;26;20228;-80
2024/04/19 07:07:25;;;;;;;6.30;3.37;;;;;;;7.51;97.19;97972.63;5409135;26;20264;-79
2024/04/19 07:09:56;;;;;;;5.93;3.70;;;;;;;7.74;98.33;97969.47;5411414;26;20298;-80
2024/04/19 07:12:24;;;;;;;3.97;3.30;;;;;;;7.78;96.34;97965.72;5411541;26;20368;-79
2024/04/19 07:14:52;;;;;;;4.83;3.67;;;;;;;7.83;95.43;97963.69;5408721;26;20672;-77
2024/04/19 07:17:20;;;;;;;5.13;3.10;;;;;;;7.82;94.98;97967.22;5407835;26;20690;-78
2024/04/19 07:19:49;;;;;;;5.67;3.33;;;;;;;7.85;97.52;97961.78;5409382;26;20369;-79
2024/04/19 07:22:17;;;;;;;4.17;3.07;;;;;;;7.84;95.96;97957.47;5408887;26;20278;-77
2024/04/19 07:24:46;;;;;;;3.37;2.90;;;;;;;7.62;94.65;97943.91;5403773;26;20335;-76
2024/04/19 07:27:17;;;;;;;3.70;2.97;;;;;;;7.52;96.43;97959.41;5403532;26;20712;-76
2024/04/19 07:29:45;;;;;;;4.93;3.53;;;;;;;7.53;99.56;97970.78;5404014;26;20578;-77
2024/04/19 07:32:13;;;;;;;3.87;3.37;;;;;;;7.53;100.00;97973.41;5403862;26;20237;-77
2024/04/19 07:34:42;;;;;;;5.30;3.90;;;;;;;7.34;100.00;97970.19;5403582;26;20356;-77
2024/04/19 07:37:10;;;;;;;4.67;3.63;;;;;;;7.32;100.00;97966.78;5404608;26;20226;-78
2024/04/19 07:39:38;;;;;;;7.00;3.60;;;;;;;7.27;100.00;97978.50;5404382;26;20643;-77
2024/04/19 07:42:07;;;;;;;4.17;3.73;;;;;;;7.23;100.00;97990.97;5404495;26;20277;-77
2024/04/19 07:44:38;;;;;;;4.97;3.30;;;;;;;7.18;100.00;97982.50;5406019;26;20753;-78
2024/04/19 07:47:07;;;;;;;4.17;3.30;;;;;;;7.12;100.00;97984.63;5406186;26;20338;-80
2024/04/19 07:49:35;;;;;;;4.03;3.23;;;;;;;7.18;100.00;97978.09;5407335;26;20364;-79
2024/04/19 07:52:03;;;;;;;4.70;3.27;;;;;;;7.18;100.00;97969.38;5406758;26;20294;-80
2024/04/19 07:54:32;;;;;;;4.10;3.30;;;;;;;7.10;100.00;97968.13;5407367;26;20328;-80
2024/04/19 07:57:00;;;;;;;4.00;3.20;;;;;;;7.06;100.00;97962.19;5407873;26;20286;-80
2024/04/19 07:59:28;;;;;;;4.87;3.23;;;;;;;7.01;100.00;97968.66;5405413;26;20276;-79
2024/04/19 08:01:59;;;;;;;4.10;3.20;;;;;;;7.01;100.00;97953.72;5407856;26;20354;-79
2024/04/19 08:04:27;;;;;;;4.83;3.30;;;;;;;7.05;100.00;97957.88;5408226;26;20274;-79
2024/04/19 08:06:55;;;;;;;3.70;2.73;;;;;;;7.04;100.00;97966.72;5418183;26;20233;-80
2024/04/19 08:09:23;;;;;;;6.57;4.17;;;;;;;6.90;100.00;97956.13;5417510;26;20306;-82
2024/04/19 08:11:51;;;;;;;4.20;3.23;;;;;;;6.78;100.00;97954.19;5415436;26;20270;-82
2024/04/19 08:14:19;;;;;;;3.97;3.07;;;;;;;6.73;100.00;97953.59;5414041;26;20234;-79
2024/04/19 08:16:48;;;;;;;4.43;3.27;;;;;;;6.65;100.00;97952.38;5409393;26;20697;-80
2024/04/19 08:19:18;;;;;;;4.80;3.30;;;;;;;6.62;100.00;97953.38;5408632;26;20227;-80
2024/04/19 08:21:46;;;;;;;6.80;3.10;;;;;;;6.55;100.00;97943.31;5406225;26;20289;-80
2024/04/19 08:24:15;;;;;;;3.73;3.17;;;;;;;6.54;100.00;97954.75;5407125;26;20358;-80
2024/04/19 08:26:43;;;;;;;3.90;2.93;;;;;;;6.50;100.00;97948.81;5407003;26;20286;-80
2024/04/19 08:29:11;;;;;;;3.63;2.77;;;;;;;6.41;100.00;97948.50;5406818;26;20840;-80
2024/04/19 08:31:41;;;;;;;3.87;2.83;;;;;;;6.31;100.00;97935.03;5406007;26;20301;-78
2024/04/19 08:34:09;;;;;;;4.07;2.70;;;;;;;6.26;100.00;97937.06;5403993;26;20225;-80
2024/04/19 08:36:40;;;;;;;3.43;2.40;;;;;;;6.28;100.00;97940.44;5406210;26;20705;-80
2024/04/19 08:39:08;;;;;;;3.70;3.20;;;;;;;6.27;100.00;97933.50;5406378;26;20242;-80
2024/04/19 08:41:36;;;;;;;2.70;2.47;;;;;;;6.25;100.00;97934.50;5405692;26;20233;-80
2024/04/19 08:44:06;;;;;;;2.93;2.63;;;;;;;6.11;100.00;97932.63;5407009;26;20769;-80
2024/04/19 08:46:36;;;;;;;4.03;2.83;;;;;;;6.01;100.00;97928.84;5406407;26;20286;-82
2024/04/19 08:49:05;;;;;;;4.27;2.60;;;;;;;6.00;100.00;97942.03;5406825;26;20233;-79
2024/04/19 08:51:34;;;;;;;5.20;2.67;;;;;;;6.00;100.00;97923.66;5408127;26;20368;-81
2024/04/19 08:54:06;;;;;;;3.97;2.90;;;;;;;6.03;100.00;97926.97;5409900;26;20289;-79
2024/04/19 08:56:38;;;;;;;3.33;2.70;;;;;;;6.05;100.00;97925.09;5410400;26;20241;-81
2024/04/19 08:59:07;;;;;;;3.17;2.67;;;;;;;6.07;100.00;97910.13;5410286;26;20225;-81
2024/04/19 09:01:35;;;;;;;3.40;2.60;;;;;;;6.08;100.00;97913.59;5408903;26;20289;-79
2024/04/19 09:04:03;;;;;;;3.50;2.63;;;;;;;6.03;100.00;97903.34;5411450;26;20222;-79
2024/04/19 09:06:31;;;;;;;3.00;2.23;;;;;;;5.96;100.00;97894.13;5410613;26;20301;-79
2024/04/19 09:09:01;;;;;;;3.63;2.33;;;;;;;5.94;100.00;97890.75;5410028;26;20273;-79
2024/04/19 09:11:31;;;;;;;3.17;2.67;;;;;;;5.95;100.00;97889.81;5410467;26;20301;-79
2024/04/19 09:13:59;;;;;;;2.80;2.30;;;;;;;5.86;100.00;97882.44;5411887;26;20370;-79
2024/04/19 09:16:28;;;;;;;3.87;2.53;;;;;;;5.87;100.00;97884.13;5413579;26;20233;-79
2024/04/19 09:18:56;;;;;;;3.67;2.83;;;;;;;5.86;100.00;97874.56;5414683;26;20229;-79
2024/04/19 09:21:24;;;;;;;2.67;2.27;;;;;;;5.85;100.00;97861.53;5411605;26;20814;-79
2024/04/19 09:23:52;;;;;;;4.57;2.80;;;;;;;5.86;100.00;97866.72;5409174;26;20261;-79
2024/04/19 09:26:21;;;;;;;3.47;2.43;;;;;;;5.87;100.00;97862.31;5409830;26;20226;-79
2024/04/19 09:28:53;;;;;;;2.87;2.23;;;;;;;5.86;100.00;97840.47;5409880;26;20226;-79
2024/04/19 09:31:21;;;;;;;3.70;2.30;;;;;;;5.91;100.00;97848.09;5409107;26;20315;-78
2024/04/19 09:33:53;;;;;;;2.60;2.17;;;;;;;5.88;100.00;97843.03;5408444;26;20273;-79
2024/04/19 09:36:21;;;;;;;2.80;2.17;;;;;;;5.84;100.00;97837.09;5409455;26;20281;-80
2024/04/19 09:38:50;;;;;;;2.77;2.20;;;;;;;5.80;100.00;97834.75;5408801;26;20298;-79
2024/04/19 09:41:18;;;;;;;2.70;2.17;;;;;;;5.82;100.00;97825.00;5408090;26;20331;-79
2024/04/19 09:43:52;;;;;;;3.20;2.40;;;;;;;5.81;100.00;97821.53;5408197;26;20269;-79
2024/04/19 09:46:27;;;;;;;2.50;2.30;;;;;;;5.86;100.00;97818.69;5411603;26;20260;-79
2024/04/19 09:49:01;;;;;;;2.77;2.30;;;;;;;5.78;100.00;97815.56;5410919;26;20302;-77
2024/04/19 09:51:36;;;;;;;2.30;2.10;;;;;;;5.71;100.00;97794.13;5408818;26;20751;-78
2024/04/19 09:54:09;;;;;;;3.10;2.23;;;;;;;5.69;100.00;97795.13;5410503;26;20288;-77
2024/04/19 09:56:42;;;;;;;2.60;2.03;;;;;;;5.67;100.00;97784.72;5410969;26;20272;-77
2024/04/19 09:59:15;;;;;;;2.90;2.30;;;;;;;5.76;100.00;97780.75;5411009;26;20290;-79
2024/04/19 10:01:43;;;;;;;2.87;2.40;;;;;;;5.75;100.00;97774.63;5411059;26;20801;-78
2024/04/19 10:04:13;;;;;;;2.77;2.43;;;;;;;5.81;100.00;97778.75;5410539;26;20230;-78
2024/04/19 10:06:42;;;;;;;2.93;2.43;;;;;;;5.78;100.00;97764.00;5420813;26;20277;-79
2024/04/19 10:09:13;;;;;;;3.40;2.40;;;;;;;5.78;100.00;97756.13;5427416;26;20283;-80
2024/04/19 10:11:43;;;;;;;4.27;2.93;;;;;;;5.83;100.00;97762.00;5426565;26;20230;-78
2024/04/19 10:14:14;;;;;;;3.00;2.50;;;;;;;5.85;100.00;97749.63;5422989;26;20229;-79
2024/04/19 10:16:43;;;;;;;3.37;2.83;;;;;;;5.82;100.00;97752.44;5420465;26;20408;-80
2024/04/19 10:19:13;;;;;;;3.03;2.60;;;;;;;5.82;100.00;97754.22;5419912;26;20319;-80
2024/04/19 10:21:42;;;;;;;3.33;2.57;;;;;;;5.89;100.00;97735.44;5417376;26;20327;-79
2024/04/19 10:24:16;;;;;;;3.33;2.53;;;;;;;5.79;100.00;97733.34;5413805;26;20319;-77
2024/04/19 10:26:44;;;;;;;4.20;2.90;;;;;;;5.82;100.00;97728.84;5409122;26;20269;-79
2024/04/19 10:29:15;;;;;;;3.43;2.80;;;;;;;5.87;100.00;97726.78;5409010;26;20704;-78
2024/04/19 10:31:46;;;;;;;3.90;2.83;;;;;;;5.91;100.00;97722.19;5408970;26;20667;-78
2024/04/19 10:34:15;;;;;;;3.60;2.70;;;;;;;5.97;100.00;97722.72;5409922;26;20230;-78
2024/04/19 10:36:45;;;;;;;3.60;2.67;;;;;;;6.03;100.00;97714.50;5411835;26;20229;-78
2024/04/19 10:39:13;;;;;;;3.77;2.97;;;;;;;6.02;100.00;97704.94;5409506;26;20256;-78
2024/04/19 10:41:47;;;;;;;3.83;2.90;;;;;;;6.06;100.00;97701.22;5409941;26;20277;-78
2024/04/19 10:44:18;;;;;;;3.23;2.60;;;;;;;6.04;100.00;97703.06;5410464;26;20302;-78
2024/04/19 10:46:48;;;;;;;3.43;2.50;;;;;;;6.07;100.00;97696.78;5410710;26;20236;-78
2024/04/19 10:49:16;;;;;;;4.33;3.30;;;;;;;6.10;100.00;97692.22;5411437;26;20248;-79
2024/04/19 10:51:45;;;;;;;3.17;2.60;;;;;;;6.03;100.00;97688.25;5412349;26;20265;-79
2024/04/19 10:54:13;;;;;;;3.53;2.77;;;;;;;6.15;100.00;97679.69;5412046;26;20298;-78
2024/04/19 10:56:41;;;;;;;3.03;2.27;;;;;;;6.15;100.00;97674.44;5412220;26;20326;-79
2024/04/19 10:59:10;;;;;;;4.90;2.90;;;;;;;6.21;100.00;97676.69;5411146;26;20269;-79
2024/04/19 11:01:42;;;;;;;3.20;2.80;;;;;;;6.21;100.00;97674.06;5408669;26;20230;-79
2024/04/19 11:04:11;;;;;;;3.47;2.60;;;;;;;6.22;100.00;97662.63;5411841;26;20252;-79
2024/04/19 11:06:39;;;;;;;4.80;2.80;;;;;;;6.11;100.00;97662.41;5412328;26;20227;-78
2024/04/19 11:09:08;;;;;;;3.63;2.80;;;;;;;6.03;100.00;97662.03;5414694;26;20605;-78
2024/04/19 11:11:37;;;;;;;4.00;3.10;;;;;;;6.10;100.00;97657.28;5415588;26;20252;-78
2024/04/19 11:14:08;;;;;;;3.43;2.30;;;;;;;6.11;100.00;97651.91;5414802;26;20225;-78
2024/04/19 11:16:36;;;;;;;2.77;2.40;;;;;;;6.02;100.00;97651.63;5416076;26;20691;-79
2024/04/19 11:19:08;;;;;;;4.57;2.50;;;;;;;6.03;100.00;97648.06;5415230;26;20277;-79
2024/04/19 11:21:36;;;;;;;2.93;2.50;;;;;;;6.00;100.00;97651.72;5415059;26;20222;-78
2024/04/19 11:24:04;;;;;;;2.37;2.00;;;;;;;5.92;100.00;97646.06;5414350;26;20226;-79
2024/04/19 11:26:33;;;;;;;4.37;2.33;;;;;;;5.96;100.00;97642.34;5413932;26;20273;-78
2024/04/19 11:29:01;;;;;;;3.73;2.40;;;;;;;5.95;100.00;97638.03;5414574;26;20282;-78
2024/04/19 11:31:29;;;;;;;4.07;2.67;;;;;;;6.01;100.00;97642.94;5408988;26;20301;-78
2024/04/19 11:33:57;;;;;;;2.53;1.87;;;;;;;5.94;100.00;97632.88;5413912;26;20234;-79
2024/04/19 11:36:28;;;;;;;2.87;2.27;;;;;;;5.95;100.00;97630.16;5412629;26;20711;-79
2024/04/19 11:38:57;;;;;;;3.00;2.30;;;;;;;5.92;100.00;97632.13;5412717;26;20528;-78
2024/04/19 11:41:25;;;;;;;2.40;2.03;;;;;;;5.91;100.00;97622.53;5411357;26;20241;-79
2024/04/19 11:43:56;;;;;;;2.20;2.00;;;;;;;5.89;100.00;97619.19;5411931;26;20375;-78
2024/04/19 11:46:27;;;;;;;2.23;2.00;;;;;;;5.91;100.00;97623.41;5411368;26;20229;-78